sensor_id;sensor_type;location;lat;lon;timestamp;P1;durP1;ratioP1;P2;durP2;ratioP2
36963;SDS011;22878;48.616;35.326;2023-01-24T01:48:13;26.30;;;8.10;;
36963;SDS011;22878;48.616;35.326;2023-01-24T01:51:00;19.90;;;7.60;;
36963;SDS011;22878;48.616;35.326;2023-01-24T01:58:58;24.10;;;7.90;;
36963;SDS011;22878;48.616;35.326;2023-01-24T02:01:27;22.40;;;7.90;;
36963;SDS011;22878;48.616;35.326;2023-01-24T02:03:54;18.70;;;7.30;;
36963;SDS011;22878;48.616;35.326;2023-01-24T02:09:20;22.40;;;6.80;;
36963;SDS011;22878;48.616;35.326;2023-01-24T02:11:49;24.00;;;8.30;;
36963;SDS011;22878;48.616;35.326;2023-01-24T02:17:40;24.60;;;8.50;;
36963;SDS011;22878;48.616;35.326;2023-01-24T02:20:10;20.50;;;7.90;;
36963;SDS011;22878;48.616;35.326;2023-01-24T02:25:45;26.70;;;8.00;;
36963;SDS011;22878;48.616;35.326;2023-01-24T02:28:23;29.90;;;8.20;;
36963;SDS011;22878;48.616;35.326;2023-01-24T02:30:49;23.40;;;8.90;;
36963;SDS011;22878;48.616;35.326;2023-01-24T02:36:36;21.10;;;7.60;;
36963;SDS011;22878;48.616;35.326;2023-01-24T02:42:32;23.20;;;8.20;;
36963;SDS011;22878;48.616;35.326;2023-01-24T02:47:36;24.20;;;8.60;;
36963;SDS011;22878;48.616;35.326;2023-01-24T02:50:05;21.10;;;7.90;;
36963;SDS011;22878;48.616;35.326;2023-01-24T02:52:33;28.40;;;8.50;;
36963;SDS011;22878;48.616;35.326;2023-01-24T02:55:18;29.50;;;9.00;;
36963;SDS011;22878;48.616;35.326;2023-01-24T02:57:43;28.50;;;8.90;;
36963;SDS011;22878;48.616;35.326;2023-01-24T03:00:27;25.70;;;8.70;;
36963;SDS011;22878;48.616;35.326;2023-01-24T03:02:53;26.00;;;7.30;;
36963;SDS011;22878;48.616;35.326;2023-01-24T03:08:40;20.60;;;7.00;;
36963;SDS011;22878;48.616;35.326;2023-01-24T03:11:06;23.40;;;7.20;;
36963;SDS011;22878;48.616;35.326;2023-01-24T03:13:33;22.50;;;7.50;;
36963;SDS011;22878;48.616;35.326;2023-01-24T03:16:18;29.60;;;8.70;;
36963;SDS011;22878;48.616;35.326;2023-01-24T03:19:03;26.90;;;9.00;;
36963;SDS011;22878;48.616;35.326;2023-01-24T03:21:47;26.00;;;7.20;;
36963;SDS011;22878;48.616;35.326;2023-01-24T03:27:52;22.50;;;7.70;;
36963;SDS011;22878;48.616;35.326;2023-01-24T03:30:36;24.10;;;8.60;;
36963;SDS011;22878;48.616;35.326;2023-01-24T03:33:20;18.70;;;6.90;;
36963;SDS011;22878;48.616;35.326;2023-01-24T03:36:04;18.20;;;6.40;;
36963;SDS011;22878;48.616;35.326;2023-01-24T03:38:31;21.80;;;7.30;;
36963;SDS011;22878;48.616;35.326;2023-01-24T03:44:37;25.70;;;7.20;;
36963;SDS011;22878;48.616;35.326;2023-01-24T03:47:03;23.70;;;7.00;;
36963;SDS011;22878;48.616;35.326;2023-01-24T03:49:28;24.10;;;6.70;;
36963;SDS011;22878;48.616;35.326;2023-01-24T03:52:12;25.70;;;7.40;;
36963;SDS011;22878;48.616;35.326;2023-01-24T03:54:56;25.90;;;7.80;;
36963;SDS011;22878;48.616;35.326;2023-01-24T03:57:23;21.60;;;7.00;;
36963;SDS011;22878;48.616;35.326;2023-01-24T03:59:50;24.00;;;6.80;;
36963;SDS011;22878;48.616;35.326;2023-01-24T04:05:37;27.00;;;7.00;;
36963;SDS011;22878;48.616;35.326;2023-01-24T04:08:02;26.70;;;7.20;;
36963;SDS011;22878;48.616;35.326;2023-01-24T04:10:29;24.60;;;7.00;;
36963;SDS011;22878;48.616;35.326;2023-01-24T04:12:55;27.80;;;7.90;;
36963;SDS011;22878;48.616;35.326;2023-01-24T04:15:22;23.70;;;7.50;;
36963;SDS011;22878;48.616;35.326;2023-01-24T04:17:49;21.30;;;6.70;;
36963;SDS011;22878;48.616;35.326;2023-01-24T04:26:58;23.40;;;7.90;;
36963;SDS011;22878;48.616;35.326;2023-01-24T04:39:28;26.20;;;7.50;;
36963;SDS011;22878;48.616;35.326;2023-01-24T04:41:54;30.40;;;8.20;;
36963;SDS011;22878;48.616;35.326;2023-01-24T04:44:19;28.40;;;8.20;;
36963;SDS011;22878;48.616;35.326;2023-01-24T04:46:45;24.60;;;7.40;;
36963;SDS011;22878;48.616;35.326;2023-01-24T04:49:10;22.50;;;7.00;;
36963;SDS011;22878;48.616;35.326;2023-01-24T04:51:37;27.30;;;8.50;;
36963;SDS011;22878;48.616;35.326;2023-01-24T04:54:06;25.40;;;8.00;;
36963;SDS011;22878;48.616;35.326;2023-01-24T04:56:32;24.90;;;8.10;;
36963;SDS011;22878;48.616;35.326;2023-01-24T04:58:58;20.40;;;7.20;;
36963;SDS011;22878;48.616;35.326;2023-01-24T05:01:23;23.60;;;7.30;;
36963;SDS011;22878;48.616;35.326;2023-01-24T05:03:49;22.50;;;7.20;;
36963;SDS011;22878;48.616;35.326;2023-01-24T05:06:14;22.40;;;7.20;;
36963;SDS011;22878;48.616;35.326;2023-01-24T05:12:01;22.90;;;7.30;;
36963;SDS011;22878;48.616;35.326;2023-01-24T05:17:49;21.20;;;7.50;;
36963;SDS011;22878;48.616;35.326;2023-01-24T05:20:15;24.90;;;7.50;;
36963;SDS011;22878;48.616;35.326;2023-01-24T05:26:02;24.00;;;7.50;;
36963;SDS011;22878;48.616;35.326;2023-01-24T05:28:28;28.10;;;8.10;;
36963;SDS011;22878;48.616;35.326;2023-01-24T05:34:16;18.90;;;6.50;;
36963;SDS011;22878;48.616;35.326;2023-01-24T05:36:42;22.80;;;7.60;;
36963;SDS011;22878;48.616;35.326;2023-01-24T05:39:07;20.30;;;6.90;;
36963;SDS011;22878;48.616;35.326;2023-01-24T05:41:33;31.60;;;7.50;;
36963;SDS011;22878;48.616;35.326;2023-01-24T05:43:58;23.90;;;7.60;;
36963;SDS011;22878;48.616;35.326;2023-01-24T05:46:25;25.30;;;8.00;;
36963;SDS011;22878;48.616;35.326;2023-01-24T05:52:12;27.10;;;8.00;;
36963;SDS011;22878;48.616;35.326;2023-01-24T05:54:40;23.80;;;7.80;;
36963;SDS011;22878;48.616;35.326;2023-01-24T06:00:26;21.60;;;8.50;;
36963;SDS011;22878;48.616;35.326;2023-01-24T06:06:14;27.00;;;8.40;;
36963;SDS011;22878;48.616;35.326;2023-01-24T06:08:42;21.40;;;7.60;;
36963;SDS011;22878;48.616;35.326;2023-01-24T06:11:13;31.50;;;9.00;;
36963;SDS011;22878;48.616;35.326;2023-01-24T06:13:40;28.10;;;7.20;;
36963;SDS011;22878;48.616;35.326;2023-01-24T06:23:25;20.70;;;7.50;;
36963;SDS011;22878;48.616;35.326;2023-01-24T06:25:49;27.80;;;7.60;;
36963;SDS011;22878;48.616;35.326;2023-01-24T06:28:15;18.60;;;6.70;;
36963;SDS011;22878;48.616;35.326;2023-01-24T06:30:59;22.80;;;6.90;;
36963;SDS011;22878;48.616;35.326;2023-01-24T06:36:59;23.20;;;7.10;;
36963;SDS011;22878;48.616;35.326;2023-01-24T06:39:33;26.90;;;7.70;;
36963;SDS011;22878;48.616;35.326;2023-01-24T06:45:20;22.00;;;6.60;;
36963;SDS011;22878;48.616;35.326;2023-01-24T06:47:46;26.80;;;7.10;;
36963;SDS011;22878;48.616;35.326;2023-01-24T06:56:55;19.50;;;6.40;;
36963;SDS011;22878;48.616;35.326;2023-01-24T06:59:20;20.90;;;6.70;;
36963;SDS011;22878;48.616;35.326;2023-01-24T14:07:09;63.00;;;23.00;;
36963;SDS011;22878;48.616;35.326;2023-01-24T14:09:43;71.60;;;24.10;;
36963;SDS011;22878;48.616;35.326;2023-01-24T14:12:14;67.80;;;23.00;;
36963;SDS011;22878;48.616;35.326;2023-01-24T14:17:57;69.70;;;23.30;;
36963;SDS011;22878;48.616;35.326;2023-01-24T14:23:20;57.50;;;20.30;;
36963;SDS011;22878;48.616;35.326;2023-01-24T14:25:50;74.00;;;24.20;;
36963;SDS011;22878;48.616;35.326;2023-01-24T14:30:48;47.00;;;18.10;;
36963;SDS011;22878;48.616;35.326;2023-01-24T14:33:28;76.70;;;25.30;;
36963;SDS011;22878;48.616;35.326;2023-01-24T14:38:36;72.20;;;24.20;;
36963;SDS011;22878;48.616;35.326;2023-01-24T20:25:36;57.40;;;22.70;;
36963;SDS011;22878;48.616;35.326;2023-01-24T20:28:20;59.00;;;21.10;;
36963;SDS011;22878;48.616;35.326;2023-01-24T20:30:45;81.70;;;27.60;;
36963;SDS011;22878;48.616;35.326;2023-01-24T20:36:08;60.50;;;20.50;;
36963;SDS011;22878;48.616;35.326;2023-01-24T20:38:39;52.50;;;18.10;;
36963;SDS011;22878;48.616;35.326;2023-01-24T20:41:17;56.80;;;18.70;;
36963;SDS011;22878;48.616;35.326;2023-01-24T20:43:44;51.60;;;17.70;;
36963;SDS011;22878;48.616;35.326;2023-01-24T20:46:18;51.80;;;18.20;;
36963;SDS011;22878;48.616;35.326;2023-01-24T20:48:56;53.70;;;19.50;;
36963;SDS011;22878;48.616;35.326;2023-01-24T21:11:13;46.40;;;17.50;;
36963;SDS011;22878;48.616;35.326;2023-01-24T21:17:05;54.80;;;17.50;;
36963;SDS011;22878;48.616;35.326;2023-01-24T21:19:30;54.50;;;18.20;;
36963;SDS011;22878;48.616;35.326;2023-01-24T21:22:07;56.00;;;20.10;;
36963;SDS011;22878;48.616;35.326;2023-01-24T21:24:34;48.20;;;17.40;;
36963;SDS011;22878;48.616;35.326;2023-01-24T21:27:00;45.40;;;17.70;;
36963;SDS011;22878;48.616;35.326;2023-01-24T21:29:26;52.30;;;18.60;;
36963;SDS011;22878;48.616;35.326;2023-01-24T21:31:52;50.70;;;18.50;;
36963;SDS011;22878;48.616;35.326;2023-01-24T21:37:40;56.60;;;20.70;;
36963;SDS011;22878;48.616;35.326;2023-01-24T21:40:18;54.40;;;20.00;;
36963;SDS011;22878;48.616;35.326;2023-01-24T21:42:44;54.10;;;18.70;;
36963;SDS011;22878;48.616;35.326;2023-01-24T21:45:09;55.20;;;18.80;;
36963;SDS011;22878;48.616;35.326;2023-01-24T21:47:41;60.30;;;19.30;;
36963;SDS011;22878;48.616;35.326;2023-01-24T21:50:08;54.20;;;18.90;;
36963;SDS011;22878;48.616;35.326;2023-01-24T21:52:52;52.50;;;18.70;;
36963;SDS011;22878;48.616;35.326;2023-01-24T21:55:18;55.90;;;18.80;;
36963;SDS011;22878;48.616;35.326;2023-01-24T21:57:46;58.90;;;19.20;;
36963;SDS011;22878;48.616;35.326;2023-01-24T22:00:27;59.60;;;19.80;;
36963;SDS011;22878;48.616;35.326;2023-01-24T22:02:52;55.00;;;18.40;;
36963;SDS011;22878;48.616;35.326;2023-01-24T22:05:44;53.10;;;16.50;;
36963;SDS011;22878;48.616;35.326;2023-01-24T22:08:10;52.80;;;18.90;;
36963;SDS011;22878;48.616;35.326;2023-01-24T22:10:38;45.60;;;16.40;;
36963;SDS011;22878;48.616;35.326;2023-01-24T22:13:03;52.90;;;17.40;;
36963;SDS011;22878;48.616;35.326;2023-01-24T22:15:32;48.80;;;16.80;;
36963;SDS011;22878;48.616;35.326;2023-01-24T22:17:57;55.50;;;18.40;;
36963;SDS011;22878;48.616;35.326;2023-01-24T22:20:23;50.40;;;16.50;;
36963;SDS011;22878;48.616;35.326;2023-01-24T22:23:07;45.50;;;16.70;;
36963;SDS011;22878;48.616;35.326;2023-01-24T22:25:51;46.40;;;15.80;;
36963;SDS011;22878;48.616;35.326;2023-01-24T22:28:22;50.70;;;16.60;;
36963;SDS011;22878;48.616;35.326;2023-01-24T22:30:48;56.40;;;18.00;;
36963;SDS011;22878;48.616;35.326;2023-01-24T22:33:16;52.00;;;17.40;;
36963;SDS011;22878;48.616;35.326;2023-01-24T22:42:23;46.80;;;17.10;;
36963;SDS011;22878;48.616;35.326;2023-01-24T22:44:55;48.80;;;15.80;;
36963;SDS011;22878;48.616;35.326;2023-01-24T22:47:21;49.20;;;16.50;;
36963;SDS011;22878;48.616;35.326;2023-01-24T22:49:47;45.90;;;16.00;;
36963;SDS011;22878;48.616;35.326;2023-01-24T22:55:43;44.20;;;15.00;;
36963;SDS011;22878;48.616;35.326;2023-01-24T22:58:09;49.10;;;15.60;;
36963;SDS011;22878;48.616;35.326;2023-01-24T23:00:34;42.40;;;15.10;;
36963;SDS011;22878;48.616;35.326;2023-01-24T23:03:00;49.20;;;15.10;;
36963;SDS011;22878;48.616;35.326;2023-01-24T23:05:25;42.80;;;14.80;;
36963;SDS011;22878;48.616;35.326;2023-01-24T23:11:22;62.00;;;18.00;;
36963;SDS011;22878;48.616;35.326;2023-01-24T23:13:50;46.40;;;16.60;;
36963;SDS011;22878;48.616;35.326;2023-01-24T23:16:55;47.20;;;16.40;;
36963;SDS011;22878;48.616;35.326;2023-01-24T23:22:19;45.60;;;15.60;;
36963;SDS011;22878;48.616;35.326;2023-01-24T23:24:49;45.70;;;15.50;;
36963;SDS011;22878;48.616;35.326;2023-01-24T23:27:20;44.30;;;14.80;;
36963;SDS011;22878;48.616;35.326;2023-01-24T23:33:23;40.00;;;14.40;;
36963;SDS011;22878;48.616;35.326;2023-01-24T23:35:54;40.80;;;14.80;;
36963;SDS011;22878;48.616;35.326;2023-01-24T23:38:21;41.20;;;15.30;;
36963;SDS011;22878;48.616;35.326;2023-01-24T23:40:46;46.90;;;15.00;;
36963;SDS011;22878;48.616;35.326;2023-01-24T23:43:12;41.80;;;14.60;;
36963;SDS011;22878;48.616;35.326;2023-01-24T23:45:40;41.50;;;14.50;;
36963;SDS011;22878;48.616;35.326;2023-01-24T23:48:19;42.20;;;14.00;;
36963;SDS011;22878;48.616;35.326;2023-01-24T23:50:52;49.50;;;15.60;;
36963;SDS011;22878;48.616;35.326;2023-01-24T23:53:18;39.40;;;14.80;;
36963;SDS011;22878;48.616;35.326;2023-01-24T23:55:44;42.20;;;15.00;;
36963;SDS011;22878;48.616;35.326;2023-01-24T23:58:09;41.60;;;14.30;;
